sensor_id;sensor_type;location;lat;lon;timestamp;P1;durP1;ratioP1;P2;durP2;ratioP2
76814;SDS011;65768;49.906;19.384;2023-07-16T00:00:10;4.40;;;3.50;;
76814;SDS011;65768;49.906;19.384;2023-07-16T00:03:18;5.50;;;3.00;;
76814;SDS011;65768;49.906;19.384;2023-07-16T00:05:49;3.80;;;3.30;;
76814;SDS011;65768;49.906;19.384;2023-07-16T00:08:18;4.40;;;2.80;;
76814;SDS011;65768;49.906;19.384;2023-07-16T00:10:46;5.30;;;2.90;;
76814;SDS011;65768;49.906;19.384;2023-07-16T00:13:15;4.90;;;3.00;;
76814;SDS011;65768;49.906;19.384;2023-07-16T00:15:43;4.90;;;3.20;;
76814;SDS011;65768;49.906;19.384;2023-07-16T00:18:11;5.70;;;4.00;;
76814;SDS011;65768;49.906;19.384;2023-07-16T00:20:39;4.20;;;3.10;;
76814;SDS011;65768;49.906;19.384;2023-07-16T00:23:07;5.80;;;4.00;;
76814;SDS011;65768;49.906;19.384;2023-07-16T00:25:35;6.10;;;3.40;;
76814;SDS011;65768;49.906;19.384;2023-07-16T00:28:03;4.70;;;3.60;;
76814;SDS011;65768;49.906;19.384;2023-07-16T00:30:32;5.90;;;3.60;;
76814;SDS011;65768;49.906;19.384;2023-07-16T00:33:00;5.50;;;3.80;;
76814;SDS011;65768;49.906;19.384;2023-07-16T00:35:28;4.60;;;3.20;;
76814;SDS011;65768;49.906;19.384;2023-07-16T00:37:56;4.40;;;3.50;;
76814;SDS011;65768;49.906;19.384;2023-07-16T00:40:24;4.00;;;3.10;;
76814;SDS011;65768;49.906;19.384;2023-07-16T00:42:52;5.10;;;3.40;;
76814;SDS011;65768;49.906;19.384;2023-07-16T00:45:20;5.60;;;3.50;;
76814;SDS011;65768;49.906;19.384;2023-07-16T00:47:48;5.60;;;3.90;;
76814;SDS011;65768;49.906;19.384;2023-07-16T00:50:16;5.10;;;3.20;;
76814;SDS011;65768;49.906;19.384;2023-07-16T00:52:44;6.50;;;3.80;;
76814;SDS011;65768;49.906;19.384;2023-07-16T00:55:13;6.20;;;3.90;;
76814;SDS011;65768;49.906;19.384;2023-07-16T00:57:41;4.50;;;4.10;;
76814;SDS011;65768;49.906;19.384;2023-07-16T01:00:10;5.40;;;3.30;;
76814;SDS011;65768;49.906;19.384;2023-07-16T01:02:39;3.90;;;3.40;;
76814;SDS011;65768;49.906;19.384;2023-07-16T01:05:09;5.90;;;3.00;;
76814;SDS011;65768;49.906;19.384;2023-07-16T01:07:37;5.40;;;3.50;;
76814;SDS011;65768;49.906;19.384;2023-07-16T01:10:10;4.80;;;3.70;;
76814;SDS011;65768;49.906;19.384;2023-07-16T01:12:39;5.20;;;3.40;;
76814;SDS011;65768;49.906;19.384;2023-07-16T01:15:07;5.40;;;3.80;;
76814;SDS011;65768;49.906;19.384;2023-07-16T01:17:36;6.10;;;3.90;;
76814;SDS011;65768;49.906;19.384;2023-07-16T01:20:04;6.20;;;4.10;;
76814;SDS011;65768;49.906;19.384;2023-07-16T01:22:35;5.10;;;3.80;;
76814;SDS011;65768;49.906;19.384;2023-07-16T01:25:44;5.90;;;4.20;;
76814;SDS011;65768;49.906;19.384;2023-07-16T01:31:27;7.20;;;4.30;;
76814;SDS011;65768;49.906;19.384;2023-07-16T01:33:56;5.80;;;3.70;;
76814;SDS011;65768;49.906;19.384;2023-07-16T01:36:26;5.30;;;3.90;;
76814;SDS011;65768;49.906;19.384;2023-07-16T01:38:55;5.60;;;4.20;;
76814;SDS011;65768;49.906;19.384;2023-07-16T01:41:23;5.70;;;4.20;;
76814;SDS011;65768;49.906;19.384;2023-07-16T01:43:52;5.90;;;4.70;;
76814;SDS011;65768;49.906;19.384;2023-07-16T01:46:20;6.60;;;4.70;;
76814;SDS011;65768;49.906;19.384;2023-07-16T01:48:49;5.80;;;4.50;;
76814;SDS011;65768;49.906;19.384;2023-07-16T01:51:17;9.70;;;4.70;;
76814;SDS011;65768;49.906;19.384;2023-07-16T01:53:45;10.60;;;6.70;;
76814;SDS011;65768;49.906;19.384;2023-07-16T01:56:14;10.60;;;7.50;;
76814;SDS011;65768;49.906;19.384;2023-07-16T01:58:42;11.60;;;7.10;;
76814;SDS011;65768;49.906;19.384;2023-07-16T02:01:10;10.30;;;7.50;;
76814;SDS011;65768;49.906;19.384;2023-07-16T02:03:38;9.40;;;7.80;;
76814;SDS011;65768;49.906;19.384;2023-07-16T02:06:07;10.70;;;7.70;;
76814;SDS011;65768;49.906;19.384;2023-07-16T02:08:35;8.00;;;6.30;;
76814;SDS011;65768;49.906;19.384;2023-07-16T02:11:03;11.50;;;7.30;;
76814;SDS011;65768;49.906;19.384;2023-07-16T02:13:31;7.80;;;6.40;;
76814;SDS011;65768;49.906;19.384;2023-07-16T02:15:59;10.00;;;7.00;;
76814;SDS011;65768;49.906;19.384;2023-07-16T02:18:27;8.40;;;6.40;;
76814;SDS011;65768;49.906;19.384;2023-07-16T02:20:55;11.10;;;6.90;;
76814;SDS011;65768;49.906;19.384;2023-07-16T02:23:23;9.90;;;7.60;;
76814;SDS011;65768;49.906;19.384;2023-07-16T02:25:52;8.60;;;7.70;;
76814;SDS011;65768;49.906;19.384;2023-07-16T02:28:20;10.10;;;7.20;;
76814;SDS011;65768;49.906;19.384;2023-07-16T02:30:48;9.30;;;7.90;;
76814;SDS011;65768;49.906;19.384;2023-07-16T02:33:18;9.00;;;7.40;;
76814;SDS011;65768;49.906;19.384;2023-07-16T02:35:47;12.50;;;8.20;;
76814;SDS011;65768;49.906;19.384;2023-07-16T02:38:21;10.70;;;7.10;;
76814;SDS011;65768;49.906;19.384;2023-07-16T02:40:49;12.40;;;7.90;;
76814;SDS011;65768;49.906;19.384;2023-07-16T02:43:18;14.70;;;8.00;;
76814;SDS011;65768;49.906;19.384;2023-07-16T02:45:46;10.50;;;8.40;;
76814;SDS011;65768;49.906;19.384;2023-07-16T02:48:14;10.00;;;7.60;;
76814;SDS011;65768;49.906;19.384;2023-07-16T02:50:42;9.30;;;7.90;;
76814;SDS011;65768;49.906;19.384;2023-07-16T02:53:11;10.10;;;7.30;;
76814;SDS011;65768;49.906;19.384;2023-07-16T02:55:39;8.70;;;7.40;;
76814;SDS011;65768;49.906;19.384;2023-07-16T02:58:07;10.80;;;8.30;;
76814;SDS011;65768;49.906;19.384;2023-07-16T03:00:35;8.10;;;6.30;;
76814;SDS011;65768;49.906;19.384;2023-07-16T03:03:03;10.50;;;7.20;;
76814;SDS011;65768;49.906;19.384;2023-07-16T03:05:31;8.70;;;6.50;;
76814;SDS011;65768;49.906;19.384;2023-07-16T03:07:59;10.10;;;6.80;;
76814;SDS011;65768;49.906;19.384;2023-07-16T03:10:27;10.90;;;6.60;;
76814;SDS011;65768;49.906;19.384;2023-07-16T03:12:56;9.70;;;7.50;;
76814;SDS011;65768;49.906;19.384;2023-07-16T03:15:24;8.40;;;6.40;;
76814;SDS011;65768;49.906;19.384;2023-07-16T03:17:52;8.40;;;7.00;;
76814;SDS011;65768;49.906;19.384;2023-07-16T03:20:20;13.20;;;7.10;;
76814;SDS011;65768;49.906;19.384;2023-07-16T03:22:48;8.50;;;6.90;;
76814;SDS011;65768;49.906;19.384;2023-07-16T03:25:16;8.20;;;6.30;;
76814;SDS011;65768;49.906;19.384;2023-07-16T03:27:45;12.60;;;7.70;;
76814;SDS011;65768;49.906;19.384;2023-07-16T03:30:13;8.10;;;6.30;;
76814;SDS011;65768;49.906;19.384;2023-07-16T03:32:41;10.90;;;7.80;;
76814;SDS011;65768;49.906;19.384;2023-07-16T03:35:09;14.60;;;8.40;;
76814;SDS011;65768;49.906;19.384;2023-07-16T03:37:37;10.50;;;7.90;;
76814;SDS011;65768;49.906;19.384;2023-07-16T03:40:15;10.10;;;8.10;;
76814;SDS011;65768;49.906;19.384;2023-07-16T03:42:44;8.90;;;6.60;;
76814;SDS011;65768;49.906;19.384;2023-07-16T03:45:12;10.00;;;6.90;;
76814;SDS011;65768;49.906;19.384;2023-07-16T03:47:41;8.70;;;6.80;;
76814;SDS011;65768;49.906;19.384;2023-07-16T03:50:10;8.50;;;6.90;;
76814;SDS011;65768;49.906;19.384;2023-07-16T03:52:38;10.40;;;7.40;;
76814;SDS011;65768;49.906;19.384;2023-07-16T03:55:06;8.60;;;6.80;;
76814;SDS011;65768;49.906;19.384;2023-07-16T03:57:35;12.50;;;7.80;;
76814;SDS011;65768;49.906;19.384;2023-07-16T04:00:04;9.20;;;6.80;;
76814;SDS011;65768;49.906;19.384;2023-07-16T04:02:36;9.20;;;6.60;;
76814;SDS011;65768;49.906;19.384;2023-07-16T04:05:05;7.90;;;6.50;;
76814;SDS011;65768;49.906;19.384;2023-07-16T04:07:34;8.40;;;6.60;;
76814;SDS011;65768;49.906;19.384;2023-07-16T04:10:02;10.40;;;7.70;;
76814;SDS011;65768;49.906;19.384;2023-07-16T04:12:30;13.60;;;9.70;;
76814;SDS011;65768;49.906;19.384;2023-07-16T04:14:58;15.00;;;10.20;;
76814;SDS011;65768;49.906;19.384;2023-07-16T04:17:27;15.10;;;9.20;;
76814;SDS011;65768;49.906;19.384;2023-07-16T04:19:55;13.00;;;8.60;;
76814;SDS011;65768;49.906;19.384;2023-07-16T04:22:23;12.20;;;8.80;;
76814;SDS011;65768;49.906;19.384;2023-07-16T04:24:51;13.40;;;9.80;;
76814;SDS011;65768;49.906;19.384;2023-07-16T04:27:19;11.20;;;8.50;;
76814;SDS011;65768;49.906;19.384;2023-07-16T04:29:47;12.60;;;9.20;;
76814;SDS011;65768;49.906;19.384;2023-07-16T04:32:15;10.30;;;8.50;;
76814;SDS011;65768;49.906;19.384;2023-07-16T04:34:43;11.80;;;10.20;;
76814;SDS011;65768;49.906;19.384;2023-07-16T04:37:12;11.90;;;9.10;;
76814;SDS011;65768;49.906;19.384;2023-07-16T04:39:40;13.00;;;10.90;;
76814;SDS011;65768;49.906;19.384;2023-07-16T04:42:08;11.50;;;9.80;;
76814;SDS011;65768;49.906;19.384;2023-07-16T04:44:36;10.60;;;8.30;;
76814;SDS011;65768;49.906;19.384;2023-07-16T04:47:04;9.90;;;7.50;;
76814;SDS011;65768;49.906;19.384;2023-07-16T04:49:34;10.00;;;8.50;;
76814;SDS011;65768;49.906;19.384;2023-07-16T04:52:03;10.40;;;8.40;;
76814;SDS011;65768;49.906;19.384;2023-07-16T04:54:35;9.80;;;8.00;;
76814;SDS011;65768;49.906;19.384;2023-07-16T04:57:05;8.50;;;7.60;;
76814;SDS011;65768;49.906;19.384;2023-07-16T04:59:34;8.70;;;7.40;;
76814;SDS011;65768;49.906;19.384;2023-07-16T05:02:05;10.70;;;9.30;;
76814;SDS011;65768;49.906;19.384;2023-07-16T05:04:34;10.50;;;7.90;;
76814;SDS011;65768;49.906;19.384;2023-07-16T05:07:03;9.40;;;7.80;;
76814;SDS011;65768;49.906;19.384;2023-07-16T05:09:32;9.00;;;7.60;;
76814;SDS011;65768;49.906;19.384;2023-07-16T05:12:00;9.30;;;7.50;;
76814;SDS011;65768;49.906;19.384;2023-07-16T05:14:28;9.00;;;7.80;;
76814;SDS011;65768;49.906;19.384;2023-07-16T05:16:56;9.40;;;6.40;;
76814;SDS011;65768;49.906;19.384;2023-07-16T05:19:25;9.80;;;7.60;;
76814;SDS011;65768;49.906;19.384;2023-07-16T05:21:53;8.10;;;6.30;;
76814;SDS011;65768;49.906;19.384;2023-07-16T05:24:21;8.70;;;7.10;;
76814;SDS011;65768;49.906;19.384;2023-07-16T05:26:49;8.70;;;6.30;;
76814;SDS011;65768;49.906;19.384;2023-07-16T05:29:18;11.10;;;6.40;;
76814;SDS011;65768;49.906;19.384;2023-07-16T05:31:46;12.30;;;6.90;;
76814;SDS011;65768;49.906;19.384;2023-07-16T05:34:14;8.30;;;7.00;;
76814;SDS011;65768;49.906;19.384;2023-07-16T05:36:43;9.80;;;7.10;;
76814;SDS011;65768;49.906;19.384;2023-07-16T05:39:14;8.40;;;6.90;;
76814;SDS011;65768;49.906;19.384;2023-07-16T05:41:42;9.30;;;6.80;;
76814;SDS011;65768;49.906;19.384;2023-07-16T05:44:11;10.80;;;7.60;;
76814;SDS011;65768;49.906;19.384;2023-07-16T05:46:39;8.00;;;5.90;;
76814;SDS011;65768;49.906;19.384;2023-07-16T05:49:07;8.00;;;6.20;;
76814;SDS011;65768;49.906;19.384;2023-07-16T05:51:35;8.40;;;5.70;;
76814;SDS011;65768;49.906;19.384;2023-07-16T05:54:03;7.90;;;5.40;;
76814;SDS011;65768;49.906;19.384;2023-07-16T05:56:31;8.40;;;6.90;;
76814;SDS011;65768;49.906;19.384;2023-07-16T05:58:59;8.40;;;5.70;;
76814;SDS011;65768;49.906;19.384;2023-07-16T06:01:28;9.60;;;6.90;;
76814;SDS011;65768;49.906;19.384;2023-07-16T06:03:56;7.00;;;5.60;;
76814;SDS011;65768;49.906;19.384;2023-07-16T06:06:24;7.70;;;6.30;;
76814;SDS011;65768;49.906;19.384;2023-07-16T06:08:52;8.50;;;5.80;;
76814;SDS011;65768;49.906;19.384;2023-07-16T06:11:20;7.50;;;5.20;;
76814;SDS011;65768;49.906;19.384;2023-07-16T06:13:48;8.60;;;6.00;;
76814;SDS011;65768;49.906;19.384;2023-07-16T06:16:16;8.70;;;4.90;;
76814;SDS011;65768;49.906;19.384;2023-07-16T06:18:44;6.50;;;5.30;;
76814;SDS011;65768;49.906;19.384;2023-07-16T06:21:12;6.00;;;4.80;;
76814;SDS011;65768;49.906;19.384;2023-07-16T06:23:42;5.50;;;4.20;;
76814;SDS011;65768;49.906;19.384;2023-07-16T06:26:10;8.80;;;5.80;;
76814;SDS011;65768;49.906;19.384;2023-07-16T06:28:38;8.20;;;4.80;;
76814;SDS011;65768;49.906;19.384;2023-07-16T06:31:07;6.10;;;5.00;;
76814;SDS011;65768;49.906;19.384;2023-07-16T06:33:35;5.30;;;4.40;;
76814;SDS011;65768;49.906;19.384;2023-07-16T06:36:03;6.40;;;4.70;;
76814;SDS011;65768;49.906;19.384;2023-07-16T06:38:32;6.50;;;4.50;;
76814;SDS011;65768;49.906;19.384;2023-07-16T06:41:00;5.00;;;4.30;;
76814;SDS011;65768;49.906;19.384;2023-07-16T06:43:28;9.30;;;4.70;;
76814;SDS011;65768;49.906;19.384;2023-07-16T06:45:56;7.80;;;4.60;;
76814;SDS011;65768;49.906;19.384;2023-07-16T06:48:25;6.20;;;5.00;;
76814;SDS011;65768;49.906;19.384;2023-07-16T06:50:53;4.80;;;4.30;;
76814;SDS011;65768;49.906;19.384;2023-07-16T06:53:21;4.90;;;4.40;;
76814;SDS011;65768;49.906;19.384;2023-07-16T06:55:49;6.20;;;4.40;;
76814;SDS011;65768;49.906;19.384;2023-07-16T06:58:18;4.70;;;3.90;;
76814;SDS011;65768;49.906;19.384;2023-07-16T07:00:46;6.30;;;3.50;;
76814;SDS011;65768;49.906;19.384;2023-07-16T07:03:14;6.90;;;3.90;;
76814;SDS011;65768;49.906;19.384;2023-07-16T07:05:42;4.70;;;3.70;;
76814;SDS011;65768;49.906;19.384;2023-07-16T07:08:10;4.80;;;3.80;;
76814;SDS011;65768;49.906;19.384;2023-07-16T07:10:38;5.10;;;4.30;;
76814;SDS011;65768;49.906;19.384;2023-07-16T07:13:07;5.80;;;4.60;;
76814;SDS011;65768;49.906;19.384;2023-07-16T07:15:35;4.80;;;3.90;;
76814;SDS011;65768;49.906;19.384;2023-07-16T07:18:03;5.00;;;3.90;;
76814;SDS011;65768;49.906;19.384;2023-07-16T07:20:31;6.10;;;4.40;;
76814;SDS011;65768;49.906;19.384;2023-07-16T07:22:59;5.30;;;4.40;;
76814;SDS011;65768;49.906;19.384;2023-07-16T07:25:30;5.90;;;3.90;;
76814;SDS011;65768;49.906;19.384;2023-07-16T07:27:59;5.20;;;3.90;;
76814;SDS011;65768;49.906;19.384;2023-07-16T07:30:27;4.30;;;3.70;;
76814;SDS011;65768;49.906;19.384;2023-07-16T07:32:55;5.20;;;4.00;;
76814;SDS011;65768;49.906;19.384;2023-07-16T07:35:24;6.40;;;3.70;;
76814;SDS011;65768;49.906;19.384;2023-07-16T07:37:52;5.30;;;3.50;;
76814;SDS011;65768;49.906;19.384;2023-07-16T07:40:20;7.10;;;3.50;;
76814;SDS011;65768;49.906;19.384;2023-07-16T07:42:50;4.20;;;3.40;;
76814;SDS011;65768;49.906;19.384;2023-07-16T07:45:18;3.90;;;3.20;;
76814;SDS011;65768;49.906;19.384;2023-07-16T07:47:46;6.40;;;3.70;;
76814;SDS011;65768;49.906;19.384;2023-07-16T07:50:14;6.00;;;4.20;;
76814;SDS011;65768;49.906;19.384;2023-07-16T07:52:42;6.90;;;4.70;;
76814;SDS011;65768;49.906;19.384;2023-07-16T07:55:10;6.90;;;4.30;;
76814;SDS011;65768;49.906;19.384;2023-07-16T07:57:39;7.60;;;4.60;;
76814;SDS011;65768;49.906;19.384;2023-07-16T08:00:07;5.00;;;3.90;;
76814;SDS011;65768;49.906;19.384;2023-07-16T08:02:39;9.60;;;4.30;;
76814;SDS011;65768;49.906;19.384;2023-07-16T08:05:08;9.30;;;4.20;;
76814;SDS011;65768;49.906;19.384;2023-07-16T08:07:36;7.00;;;4.30;;
76814;SDS011;65768;49.906;19.384;2023-07-16T08:10:05;6.30;;;4.60;;
76814;SDS011;65768;49.906;19.384;2023-07-16T08:12:33;5.60;;;4.30;;
76814;SDS011;65768;49.906;19.384;2023-07-16T08:15:01;4.90;;;4.40;;
76814;SDS011;65768;49.906;19.384;2023-07-16T08:17:29;7.40;;;4.30;;
76814;SDS011;65768;49.906;19.384;2023-07-16T08:19:57;11.20;;;4.80;;
76814;SDS011;65768;49.906;19.384;2023-07-16T08:22:26;8.20;;;3.90;;
76814;SDS011;65768;49.906;19.384;2023-07-16T08:24:54;5.70;;;4.20;;
76814;SDS011;65768;49.906;19.384;2023-07-16T08:27:22;5.20;;;4.00;;
76814;SDS011;65768;49.906;19.384;2023-07-16T08:29:50;6.30;;;4.40;;
76814;SDS011;65768;49.906;19.384;2023-07-16T08:32:19;7.90;;;4.30;;
76814;SDS011;65768;49.906;19.384;2023-07-16T08:34:47;6.60;;;4.10;;
76814;SDS011;65768;49.906;19.384;2023-07-16T08:37:15;5.70;;;4.10;;
76814;SDS011;65768;49.906;19.384;2023-07-16T08:39:44;5.10;;;4.50;;
76814;SDS011;65768;49.906;19.384;2023-07-16T08:42:12;5.40;;;4.00;;
76814;SDS011;65768;49.906;19.384;2023-07-16T08:44:41;5.30;;;3.70;;
76814;SDS011;65768;49.906;19.384;2023-07-16T08:47:10;4.60;;;3.60;;
76814;SDS011;65768;49.906;19.384;2023-07-16T08:49:38;4.80;;;3.90;;
76814;SDS011;65768;49.906;19.384;2023-07-16T08:52:08;6.80;;;3.30;;
76814;SDS011;65768;49.906;19.384;2023-07-16T08:54:37;5.70;;;3.30;;
76814;SDS011;65768;49.906;19.384;2023-07-16T08:57:05;6.70;;;3.60;;
76814;SDS011;65768;49.906;19.384;2023-07-16T08:59:34;4.10;;;3.20;;
76814;SDS011;65768;49.906;19.384;2023-07-16T09:02:06;5.20;;;3.80;;
76814;SDS011;65768;49.906;19.384;2023-07-16T09:04:34;4.20;;;2.90;;
76814;SDS011;65768;49.906;19.384;2023-07-16T09:07:04;5.80;;;3.60;;
76814;SDS011;65768;49.906;19.384;2023-07-16T09:09:33;3.70;;;3.30;;
76814;SDS011;65768;49.906;19.384;2023-07-16T09:12:01;5.70;;;3.10;;
76814;SDS011;65768;49.906;19.384;2023-07-16T09:14:30;7.80;;;3.10;;
76814;SDS011;65768;49.906;19.384;2023-07-16T09:16:58;5.60;;;3.60;;
76814;SDS011;65768;49.906;19.384;2023-07-16T09:19:27;5.40;;;3.70;;
76814;SDS011;65768;49.906;19.384;2023-07-16T09:21:55;6.30;;;3.60;;
76814;SDS011;65768;49.906;19.384;2023-07-16T09:24:23;4.90;;;3.80;;
76814;SDS011;65768;49.906;19.384;2023-07-16T09:26:53;5.50;;;3.20;;
76814;SDS011;65768;49.906;19.384;2023-07-16T09:29:22;5.40;;;3.00;;
76814;SDS011;65768;49.906;19.384;2023-07-16T09:31:54;4.30;;;3.50;;
76814;SDS011;65768;49.906;19.384;2023-07-16T09:34:23;4.60;;;3.10;;
76814;SDS011;65768;49.906;19.384;2023-07-16T09:36:54;5.50;;;3.00;;
76814;SDS011;65768;49.906;19.384;2023-07-16T09:39:24;4.40;;;2.90;;
76814;SDS011;65768;49.906;19.384;2023-07-16T09:41:54;4.20;;;2.90;;
76814;SDS011;65768;49.906;19.384;2023-07-16T09:44:25;8.40;;;3.40;;
76814;SDS011;65768;49.906;19.384;2023-07-16T09:46:53;3.40;;;2.80;;
76814;SDS011;65768;49.906;19.384;2023-07-16T09:49:21;4.30;;;3.00;;
76814;SDS011;65768;49.906;19.384;2023-07-16T09:51:49;4.10;;;3.20;;
76814;SDS011;65768;49.906;19.384;2023-07-16T09:54:24;4.40;;;3.10;;
76814;SDS011;65768;49.906;19.384;2023-07-16T09:56:54;3.80;;;3.00;;
76814;SDS011;65768;49.906;19.384;2023-07-16T09:59:28;6.00;;;3.10;;
76814;SDS011;65768;49.906;19.384;2023-07-16T10:01:59;4.30;;;3.20;;
76814;SDS011;65768;49.906;19.384;2023-07-16T10:04:36;5.40;;;3.70;;
76814;SDS011;65768;49.906;19.384;2023-07-16T10:07:21;6.60;;;3.80;;
76814;SDS011;65768;49.906;19.384;2023-07-16T10:09:55;4.10;;;3.20;;
76814;SDS011;65768;49.906;19.384;2023-07-16T10:12:25;3.80;;;3.10;;
76814;SDS011;65768;49.906;19.384;2023-07-16T10:14:54;4.60;;;3.60;;
76814;SDS011;65768;49.906;19.384;2023-07-16T10:17:27;5.10;;;3.10;;
76814;SDS011;65768;49.906;19.384;2023-07-16T10:19:58;4.70;;;3.30;;
76814;SDS011;65768;49.906;19.384;2023-07-16T10:22:35;4.10;;;3.50;;
76814;SDS011;65768;49.906;19.384;2023-07-16T10:27:45;3.80;;;3.30;;
76814;SDS011;65768;49.906;19.384;2023-07-16T10:30:15;4.20;;;3.10;;
76814;SDS011;65768;49.906;19.384;2023-07-16T10:32:44;3.80;;;3.40;;
76814;SDS011;65768;49.906;19.384;2023-07-16T10:35:12;4.30;;;3.30;;
76814;SDS011;65768;49.906;19.384;2023-07-16T10:37:41;4.20;;;3.40;;
76814;SDS011;65768;49.906;19.384;2023-07-16T10:40:12;4.20;;;3.80;;
76814;SDS011;65768;49.906;19.384;2023-07-16T10:42:42;4.80;;;3.70;;
76814;SDS011;65768;49.906;19.384;2023-07-16T10:45:11;5.50;;;3.20;;
76814;SDS011;65768;49.906;19.384;2023-07-16T10:47:50;6.90;;;4.10;;
76814;SDS011;65768;49.906;19.384;2023-07-16T10:50:20;5.50;;;4.40;;
76814;SDS011;65768;49.906;19.384;2023-07-16T10:52:55;6.50;;;4.10;;
76814;SDS011;65768;49.906;19.384;2023-07-16T10:55:26;4.60;;;3.80;;
76814;SDS011;65768;49.906;19.384;2023-07-16T10:57:55;6.00;;;3.80;;
76814;SDS011;65768;49.906;19.384;2023-07-16T11:00:24;7.30;;;4.60;;
76814;SDS011;65768;49.906;19.384;2023-07-16T11:02:52;4.20;;;3.60;;
76814;SDS011;65768;49.906;19.384;2023-07-16T11:05:20;5.30;;;4.00;;
76814;SDS011;65768;49.906;19.384;2023-07-16T11:07:49;4.10;;;3.60;;
76814;SDS011;65768;49.906;19.384;2023-07-16T11:10:18;4.70;;;3.90;;
76814;SDS011;65768;49.906;19.384;2023-07-16T11:12:51;5.30;;;4.30;;
76814;SDS011;65768;49.906;19.384;2023-07-16T11:15:30;6.20;;;4.40;;
76814;SDS011;65768;49.906;19.384;2023-07-16T11:18:03;4.90;;;4.20;;
76814;SDS011;65768;49.906;19.384;2023-07-16T11:20:31;4.50;;;4.00;;
76814;SDS011;65768;49.906;19.384;2023-07-16T11:23:00;4.80;;;4.30;;
76814;SDS011;65768;49.906;19.384;2023-07-16T11:25:28;4.70;;;4.30;;
76814;SDS011;65768;49.906;19.384;2023-07-16T11:27:57;5.80;;;4.50;;
76814;SDS011;65768;49.906;19.384;2023-07-16T11:30:25;6.50;;;4.50;;
76814;SDS011;65768;49.906;19.384;2023-07-16T11:32:57;4.90;;;4.40;;
76814;SDS011;65768;49.906;19.384;2023-07-16T11:35:26;6.00;;;5.10;;
76814;SDS011;65768;49.906;19.384;2023-07-16T11:37:54;6.00;;;5.10;;
76814;SDS011;65768;49.906;19.384;2023-07-16T11:40:22;6.00;;;5.40;;
76814;SDS011;65768;49.906;19.384;2023-07-16T11:42:53;6.10;;;5.10;;
76814;SDS011;65768;49.906;19.384;2023-07-16T11:45:22;8.10;;;5.40;;
76814;SDS011;65768;49.906;19.384;2023-07-16T11:47:56;6.60;;;5.20;;
76814;SDS011;65768;49.906;19.384;2023-07-16T11:50:25;6.80;;;5.80;;
76814;SDS011;65768;49.906;19.384;2023-07-16T11:52:54;6.70;;;5.00;;
76814;SDS011;65768;49.906;19.384;2023-07-16T11:55:23;6.60;;;5.30;;
76814;SDS011;65768;49.906;19.384;2023-07-16T11:57:52;7.30;;;5.70;;
76814;SDS011;65768;49.906;19.384;2023-07-16T12:00:20;6.10;;;5.50;;
76814;SDS011;65768;49.906;19.384;2023-07-16T12:02:51;5.90;;;5.30;;
76814;SDS011;65768;49.906;19.384;2023-07-16T12:05:20;6.40;;;5.00;;
76814;SDS011;65768;49.906;19.384;2023-07-16T12:07:49;6.70;;;5.60;;
76814;SDS011;65768;49.906;19.384;2023-07-16T12:10:18;7.10;;;5.50;;
76814;SDS011;65768;49.906;19.384;2023-07-16T12:12:46;6.80;;;5.90;;
76814;SDS011;65768;49.906;19.384;2023-07-16T12:15:14;7.80;;;6.50;;
76814;SDS011;65768;49.906;19.384;2023-07-16T12:17:43;8.40;;;5.50;;
76814;SDS011;65768;49.906;19.384;2023-07-16T12:20:11;6.00;;;5.30;;
76814;SDS011;65768;49.906;19.384;2023-07-16T12:22:39;6.50;;;5.90;;
76814;SDS011;65768;49.906;19.384;2023-07-16T12:25:07;7.90;;;6.70;;
76814;SDS011;65768;49.906;19.384;2023-07-16T12:27:35;7.70;;;6.70;;
76814;SDS011;65768;49.906;19.384;2023-07-16T12:30:04;8.30;;;6.50;;
76814;SDS011;65768;49.906;19.384;2023-07-16T12:32:32;7.40;;;6.40;;
76814;SDS011;65768;49.906;19.384;2023-07-16T12:35:02;9.40;;;6.70;;
76814;SDS011;65768;49.906;19.384;2023-07-16T12:37:31;7.60;;;6.90;;
76814;SDS011;65768;49.906;19.384;2023-07-16T12:40:00;7.60;;;6.80;;
76814;SDS011;65768;49.906;19.384;2023-07-16T12:42:28;7.30;;;6.60;;
76814;SDS011;65768;49.906;19.384;2023-07-16T12:44:56;7.90;;;6.90;;
76814;SDS011;65768;49.906;19.384;2023-07-16T12:47:25;7.40;;;6.70;;
76814;SDS011;65768;49.906;19.384;2023-07-16T12:49:53;7.90;;;7.20;;
76814;SDS011;65768;49.906;19.384;2023-07-16T12:52:21;9.30;;;8.00;;
76814;SDS011;65768;49.906;19.384;2023-07-16T12:54:50;8.60;;;7.80;;
76814;SDS011;65768;49.906;19.384;2023-07-16T12:57:18;8.90;;;7.50;;
76814;SDS011;65768;49.906;19.384;2023-07-16T12:59:46;8.70;;;7.80;;
76814;SDS011;65768;49.906;19.384;2023-07-16T13:02:15;8.20;;;7.40;;
76814;SDS011;65768;49.906;19.384;2023-07-16T13:04:43;9.00;;;7.90;;
76814;SDS011;65768;49.906;19.384;2023-07-16T13:07:11;9.90;;;8.80;;
76814;SDS011;65768;49.906;19.384;2023-07-16T13:09:40;9.10;;;8.10;;
76814;SDS011;65768;49.906;19.384;2023-07-16T13:12:09;8.90;;;8.10;;
76814;SDS011;65768;49.906;19.384;2023-07-16T13:14:37;9.20;;;8.30;;
76814;SDS011;65768;49.906;19.384;2023-07-16T13:17:05;7.70;;;7.00;;
76814;SDS011;65768;49.906;19.384;2023-07-16T13:19:34;8.00;;;7.20;;
76814;SDS011;65768;49.906;19.384;2023-07-16T13:22:02;10.80;;;9.00;;
76814;SDS011;65768;49.906;19.384;2023-07-16T13:24:30;8.70;;;7.30;;
76814;SDS011;65768;49.906;19.384;2023-07-16T13:26:58;7.90;;;6.90;;
76814;SDS011;65768;49.906;19.384;2023-07-16T13:29:27;8.70;;;7.20;;
76814;SDS011;65768;49.906;19.384;2023-07-16T13:31:56;8.70;;;7.80;;
76814;SDS011;65768;49.906;19.384;2023-07-16T13:34:24;11.00;;;9.30;;
76814;SDS011;65768;49.906;19.384;2023-07-16T13:36:52;9.80;;;8.90;;
76814;SDS011;65768;49.906;19.384;2023-07-16T13:39:21;10.30;;;9.30;;
76814;SDS011;65768;49.906;19.384;2023-07-16T13:41:49;8.30;;;7.50;;
76814;SDS011;65768;49.906;19.384;2023-07-16T13:44:18;9.00;;;8.10;;
76814;SDS011;65768;49.906;19.384;2023-07-16T13:46:46;7.90;;;7.20;;
76814;SDS011;65768;49.906;19.384;2023-07-16T13:49:14;8.00;;;7.20;;
76814;SDS011;65768;49.906;19.384;2023-07-16T13:51:42;9.60;;;8.20;;
76814;SDS011;65768;49.906;19.384;2023-07-16T13:54:11;8.60;;;7.80;;
76814;SDS011;65768;49.906;19.384;2023-07-16T13:56:39;9.90;;;8.90;;
76814;SDS011;65768;49.906;19.384;2023-07-16T13:59:07;8.70;;;7.90;;
76814;SDS011;65768;49.906;19.384;2023-07-16T14:01:39;8.70;;;7.90;;
76814;SDS011;65768;49.906;19.384;2023-07-16T14:04:07;9.60;;;8.70;;
76814;SDS011;65768;49.906;19.384;2023-07-16T14:06:36;9.70;;;8.80;;
76814;SDS011;65768;49.906;19.384;2023-07-16T14:09:04;9.60;;;8.60;;
76814;SDS011;65768;49.906;19.384;2023-07-16T14:11:33;10.20;;;9.20;;
76814;SDS011;65768;49.906;19.384;2023-07-16T14:14:01;9.20;;;8.30;;
76814;SDS011;65768;49.906;19.384;2023-07-16T14:16:30;9.20;;;8.40;;
76814;SDS011;65768;49.906;19.384;2023-07-16T14:18:58;9.00;;;8.30;;
76814;SDS011;65768;49.906;19.384;2023-07-16T14:21:26;9.50;;;8.70;;
76814;SDS011;65768;49.906;19.384;2023-07-16T14:23:55;9.80;;;8.90;;
76814;SDS011;65768;49.906;19.384;2023-07-16T14:26:23;8.70;;;7.80;;
76814;SDS011;65768;49.906;19.384;2023-07-16T14:28:51;11.40;;;7.80;;
76814;SDS011;65768;49.906;19.384;2023-07-16T14:31:19;10.30;;;9.30;;
76814;SDS011;65768;49.906;19.384;2023-07-16T14:33:48;9.80;;;8.20;;
76814;SDS011;65768;49.906;19.384;2023-07-16T14:36:16;8.70;;;7.90;;
76814;SDS011;65768;49.906;19.384;2023-07-16T14:38:44;9.00;;;8.10;;
76814;SDS011;65768;49.906;19.384;2023-07-16T14:41:12;8.90;;;8.10;;
76814;SDS011;65768;49.906;19.384;2023-07-16T14:43:40;7.50;;;6.90;;
76814;SDS011;65768;49.906;19.384;2023-07-16T14:46:09;8.10;;;7.30;;
76814;SDS011;65768;49.906;19.384;2023-07-16T14:48:43;8.00;;;7.30;;